Vremea acum in Bacau - Romania

Vrei sa afli care e starea vremii acum in Bacau - Romania? Dorim sa iti furnizam starea vremii pentru Bacau - Romania. Starea vremii Bacau - Romania pentru astazi.

Vremea acum in Bacau

Temperatura: 19 °C

Se simte ca: 19 °C
Innorat: 0 %
Precipitatii: 0 %
Presiune atmosferica: 1017 hPa
Umiditate: 68%
Vizibilitate: 10 km
Vantul bate din NNW cu 0 km/h

Evolutia vremii in Bacau pe ore

Ora: 15:00
Parțial noros
Temperatura: 28.4°C
Sansa de precipitatii: 0%
Ora Descriere Temp Se simte Precipitatii Umiditate Vant
00:00Parțial noros17.5°17.5°0%76%WNW 3.6 KM/H
01:00Parțial noros15.3°15.3°0%79%WNW 3.2 KM/H
02:00Parțial noros13°13°0%82%WNW 2.5 KM/H
03:00Parțial noros12.8°13.1°0%82%W 2.9 KM/H
04:00Parțial noros12.7°13.1°0%82%W 2.9 KM/H
05:00Parțial noros12.5°13.2°0%82%W 3.2 KM/H
06:00Parțial noros15°15.4°0%72%W 4 KM/H
07:00Parțial noros17.4°17.7°0%62%WNW 4.3 KM/H
08:00Parțial noros19.9°19.9°0%52%WNW 5 KM/H
09:00Parțial noros21.9°21.9°0%47%WNW 5.8 KM/H
10:00Parțial noros24°23.8°0%41%NW 6.8 KM/H
11:00Parțial noros26°25.8°0%36%NW 7.6 KM/H
12:00Parțial noros26.8°26.2°0%33%NNW 9.4 KM/H
13:00Parțial noros27.6°26.7°0%30%NNW 10.8 KM/H
14:00Parțial noros28.4°27.1°0%27%NNW 12.6 KM/H
15:00Parțial noros28.4°27.1°0%27%SW 12.6 KM/H
16:00Parțial noros28.5°27.1°0%27%ESE 12.2 KM/H
17:00Parțial noros28.5°27.1°0%27%N 12.2 KM/H
18:00Parțial noros27.2°27.6°0%33%NNE 11.5 KM/H
19:00Parțial noros25.8°28°0%39%NE 10.4 KM/H
20:00Parțial noros24.5°28.5°0%45%NE 9.7 KM/H
21:00Parțial noros23.2°27.2°0%50%SE 7.6 KM/H
22:00Parțial noros21.8°21.8°0%55%SSW 5.8 KM/H
23:00Parțial noros20.5°20.5°0%60%WNW 3.6 KM/H